Time;durP1;ratioP1;P1;durP2;ratioP2;P2;SDS_P1;SDS_P2;PMS_P1;PMS_P2;Temp;Humidity;BMP_temperature;BMP_pressure;BME280_temperature;BME280_humidity;BME280_pressure;Samples;Min_cycle;Max_cycle;Signal;HPM_P1;HPM_P2
2023/04/17 00:01:38;;;;;;;17.80;13.40;;;;;;;8.36;89.57;99433.05;108355;1303;23124;-45
2023/04/17 00:04:04;;;;;;;17.80;13.40;;;;;;;8.33;90.59;99429.34;108363;1303;22211;-46
2023/04/17 00:06:32;;;;;;;15.80;12.50;;;;;;;8.35;90.41;99430.86;108389;1303;22203;-47
2023/04/17 00:08:58;;;;;;;16.00;12.70;;;;;;;8.33;90.54;99427.95;108376;1303;22250;-44
2023/04/17 00:11:23;;;;;;;16.50;12.80;;;;;;;8.33;91.28;99428.32;108373;1303;22347;-46
2023/04/17 00:13:49;;;;;;;18.10;12.50;;;;;;;8.34;90.89;99429.50;108363;1303;22414;-45
2023/04/17 00:16:14;;;;;;;16.70;13.40;;;;;;;8.29;90.62;99428.29;108373;1303;22579;-47
2023/04/17 00:18:39;;;;;;;21.80;13.50;;;;;;;8.31;90.60;99432.07;108371;1303;22325;-43
2023/04/17 00:21:05;;;;;;;21.80;13.00;;;;;;;8.33;90.37;99432.68;108393;1303;22225;-44
2023/04/17 00:23:30;;;;;;;19.40;13.30;;;;;;;8.32;90.37;99434.61;108379;1303;22484;-44
2023/04/17 00:25:56;;;;;;;18.90;12.80;;;;;;;8.28;90.86;99436.38;108387;1303;22238;-47
2023/04/17 00:28:21;;;;;;;17.10;13.10;;;;;;;8.29;90.65;99436.34;108365;1303;22439;-48
2023/04/17 00:30:47;;;;;;;18.00;12.90;;;;;;;8.30;90.55;99434.34;108398;1303;22427;-44
2023/04/17 00:33:12;;;;;;;17.30;12.80;;;;;;;8.34;90.01;99436.66;108376;1303;22246;-44
2023/04/17 00:35:37;;;;;;;16.80;13.10;;;;;;;8.33;90.28;99440.71;108394;1303;22681;-44
2023/04/17 00:38:03;;;;;;;17.00;13.10;;;;;;;8.30;89.92;99440.12;108382;1303;22204;-45
2023/04/17 00:40:28;;;;;;;17.40;12.00;;;;;;;8.27;90.23;99438.35;108361;1303;23017;-45
2023/04/17 00:43:02;;;;;;;18.80;12.60;;;;;;;8.26;89.89;99439.42;108368;1303;23028;-44
2023/04/17 00:45:28;;;;;;;13.90;11.60;;;;;;;8.25;90.38;99439.50;108380;1303;22471;-45
2023/04/17 00:47:55;;;;;;;16.50;11.40;;;;;;;8.22;90.28;99438.36;108390;1303;22316;-44
2023/04/17 00:50:21;;;;;;;16.60;12.00;;;;;;;8.22;90.06;99439.80;108380;1303;22386;-42
2023/04/17 00:52:47;;;;;;;15.40;11.90;;;;;;;8.19;89.41;99440.96;108393;1303;22588;-46
2023/04/17 00:55:14;;;;;;;16.00;12.10;;;;;;;8.16;90.15;99442.34;108360;1303;22233;-49
2023/04/17 00:57:41;;;;;;;16.60;12.30;;;;;;;8.16;90.16;99442.83;108396;1303;23719;-43
2023/04/17 01:00:08;;;;;;;18.00;13.30;;;;;;;8.15;90.12;99443.44;108376;1303;22996;-43
2023/04/17 01:02:33;;;;;;;15.70;11.80;;;;;;;8.12;90.79;99441.94;108375;1303;23250;-42
2023/04/17 01:04:59;;;;;;;18.00;12.50;;;;;;;8.11;90.76;99442.02;108412;1303;22244;-45
2023/04/17 01:07:24;;;;;;;14.30;12.10;;;;;;;8.09;90.81;99446.30;108349;1303;22245;-44
2023/04/17 01:09:49;;;;;;;16.40;11.80;;;;;;;8.09;90.21;99450.65;108324;1304;22232;-46
2023/04/17 01:12:19;;;;;;;15.90;12.50;;;;;;;8.06;90.99;99450.23;108309;1304;22230;-44
2023/04/17 01:14:44;;;;;;;17.10;12.60;;;;;;;8.08;90.43;99445.61;108325;1304;22365;-44
2023/04/17 01:17:13;;;;;;;15.50;11.40;;;;;;;8.07;90.16;99448.64;108336;1304;22232;-46
2023/04/17 01:19:38;;;;;;;18.90;12.90;;;;;;;8.01;90.75;99449.05;108333;1304;22228;-44
2023/04/17 01:22:04;;;;;;;16.80;12.90;;;;;;;7.97;90.77;99451.67;108312;1304;22943;-43
2023/04/17 01:24:29;;;;;;;14.60;11.50;;;;;;;7.94;90.99;99448.83;108303;1304;22387;-47
2023/04/17 01:26:55;;;;;;;18.90;12.70;;;;;;;7.89;91.09;99446.75;108318;1304;22227;-42
2023/04/17 01:29:20;;;;;;;17.90;13.00;;;;;;;7.85;90.85;99440.65;108301;1304;22709;-42
2023/04/17 01:31:45;;;;;;;17.90;13.60;;;;;;;7.82;91.64;99442.51;108345;1304;22229;-46
2023/04/17 01:34:11;;;;;;;16.80;12.70;;;;;;;7.83;91.92;99439.50;108296;1304;22238;-47
2023/04/17 01:36:36;;;;;;;16.80;12.70;;;;;;;7.85;91.48;99436.83;108323;1304;24901;-46
2023/04/17 01:39:02;;;;;;;16.60;13.10;;;;;;;7.80;92.36;99432.80;108327;1304;23240;-44
2023/04/17 01:41:28;;;;;;;18.50;13.00;;;;;;;7.80;92.93;99433.19;108308;1304;22234;-42
2023/04/17 01:43:53;;;;;;;17.60;12.60;;;;;;;7.81;92.60;99435.75;108297;1304;22313;-42
2023/04/17 01:46:18;;;;;;;19.50;13.40;;;;;;;7.78;92.38;99432.73;108324;1304;22496;-45
2023/04/17 01:48:44;;;;;;;17.30;13.30;;;;;;;7.79;92.07;99433.73;108307;1304;23003;-43
2023/04/17 01:51:09;;;;;;;16.50;12.40;;;;;;;7.78;91.89;99439.71;108307;1304;22233;-42
2023/04/17 01:53:34;;;;;;;22.60;14.10;;;;;;;7.74;93.24;99436.75;108316;1304;22353;-46
2023/04/17 01:56:00;;;;;;;16.90;13.50;;;;;;;7.75;92.94;99437.41;108320;1304;23067;-46
2023/04/17 01:58:26;;;;;;;17.50;13.10;;;;;;;7.73;92.64;99435.72;108307;1304;22408;-44
2023/04/17 02:00:51;;;;;;;19.00;12.80;;;;;;;7.72;92.44;99434.54;108314;1304;22408;-44
2023/04/17 02:03:16;;;;;;;19.90;12.70;;;;;;;7.72;92.37;99436.30;108318;1304;23389;-42
2023/04/17 02:05:46;;;;;;;15.90;12.70;;;;;;;7.68;91.88;99445.34;108311;1304;23011;-44
2023/04/17 02:08:12;;;;;;;16.00;12.60;;;;;;;7.62;92.51;99442.46;108312;1304;22984;-43
2023/04/17 02:10:37;;;;;;;19.20;12.70;;;;;;;7.57;92.88;99443.52;108317;1304;23023;-44
2023/04/17 02:13:02;;;;;;;17.50;12.70;;;;;;;7.53;93.23;99441.45;108307;1304;22336;-42
2023/04/17 02:15:28;;;;;;;21.10;13.60;;;;;;;7.46;93.68;99440.33;108315;1304;22421;-47
2023/04/17 02:17:53;;;;;;;19.00;13.90;;;;;;;7.42;93.84;99446.59;108324;1304;22325;-44
2023/04/17 02:20:18;;;;;;;18.70;13.90;;;;;;;7.36;94.64;99447.53;108321;1304;22590;-42
2023/04/17 02:22:44;;;;;;;23.20;13.50;;;;;;;7.35;94.24;99454.01;108328;1304;22246;-44
2023/04/17 02:25:09;;;;;;;19.70;14.10;;;;;;;7.30;94.20;99454.39;107677;1304;22573;-43
2023/04/17 02:27:35;;;;;;;21.00;14.10;;;;;;;7.24;94.71;99455.66;108275;1304;22214;-44
2023/04/17 02:30:00;;;;;;;20.70;14.30;;;;;;;7.25;94.84;99455.79;108337;1304;22304;-46
2023/04/17 02:32:27;;;;;;;21.00;14.50;;;;;;;7.21;95.16;99458.02;108336;1304;23115;-44
2023/04/17 02:34:53;;;;;;;20.30;14.40;;;;;;;7.03;97.08;99457.17;108313;1304;22995;-47
2023/04/17 02:37:18;;;;;;;21.30;14.40;;;;;;;7.04;97.25;99461.66;108334;1304;22263;-47
2023/04/17 02:39:44;;;;;;;26.00;14.30;;;;;;;7.07;95.47;99464.48;108305;1304;22213;-42
2023/04/17 02:42:11;;;;;;;22.10;14.70;;;;;;;7.07;95.48;99465.38;107769;1289;22218;-41
2023/04/17 02:44:38;;;;;;;20.60;14.70;;;;;;;7.04;95.41;99466.37;107843;1308;22298;-41
2023/04/17 02:47:04;;;;;;;22.20;14.20;;;;;;;7.03;95.34;99465.17;107819;1308;22921;-42
2023/04/17 02:49:29;;;;;;;22.50;14.30;;;;;;;7.03;96.18;99464.29;107798;1308;22260;-41
2023/04/17 02:51:55;;;;;;;23.20;15.20;;;;;;;7.00;97.36;99463.53;107794;1308;22656;-42
2023/04/17 02:54:20;;;;;;;25.20;15.60;;;;;;;7.02;97.96;99465.40;107800;1308;22224;-43
2023/04/17 02:56:46;;;;;;;22.50;15.30;;;;;;;7.10;97.44;99460.91;107808;1308;22565;-43
2023/04/17 02:59:12;;;;;;;20.20;14.80;;;;;;;7.08;98.14;99457.33;107803;1308;22308;-43
2023/04/17 03:01:39;;;;;;;22.20;15.70;;;;;;;7.03;98.32;99455.59;107828;1308;22227;-43
2023/04/17 03:04:05;;;;;;;25.60;16.00;;;;;;;7.12;97.54;99460.85;107680;1308;178276;-43
2023/04/17 03:06:30;;;;;;;25.40;15.60;;;;;;;7.19;97.44;99464.59;107807;1308;22411;-43
2023/04/17 03:08:56;;;;;;;21.00;15.10;;;;;;;7.21;97.66;99462.94;107819;1308;22225;-43
2023/04/17 03:11:21;;;;;;;23.70;14.70;;;;;;;7.22;97.56;99465.48;107785;1308;22460;-43
2023/04/17 03:13:46;;;;;;;25.00;14.90;;;;;;;7.25;97.86;99467.83;107827;1308;22238;-43
2023/04/17 03:16:12;;;;;;;22.10;14.90;;;;;;;7.27;96.96;99470.52;107804;1308;22246;-42
2023/04/17 03:18:40;;;;;;;22.60;14.80;;;;;;;7.28;97.44;99473.48;107840;1308;22248;-42
2023/04/17 03:21:06;;;;;;;22.50;14.40;;;;;;;7.33;97.05;99474.34;107801;1308;23000;-42
2023/04/17 03:23:31;;;;;;;23.00;15.20;;;;;;;7.35;96.35;99468.67;107802;1308;23209;-43
2023/04/17 03:25:57;;;;;;;18.20;14.20;;;;;;;7.32;97.15;99469.32;107811;1308;22493;-43
2023/04/17 03:28:22;;;;;;;22.20;15.80;;;;;;;7.35;96.74;99466.58;107833;1308;22258;-42
2023/04/17 03:30:49;;;;;;;21.50;14.40;;;;;;;7.37;96.37;99475.40;107800;1308;22250;-42
2023/04/17 03:33:15;;;;;;;23.20;15.30;;;;;;;7.37;96.21;99477.99;107828;1308;22703;-43
2023/04/17 03:35:41;;;;;;;21.70;15.50;;;;;;;7.39;96.62;99479.48;107827;1308;22306;-42
2023/04/17 03:38:06;;;;;;;20.30;14.10;;;;;;;7.42;95.77;99477.29;107803;1308;22275;-42
2023/04/17 03:40:32;;;;;;;20.50;14.20;;;;;;;7.38;96.28;99482.48;107833;1301;22318;-43
2023/04/17 03:42:57;;;;;;;23.50;14.40;;;;;;;7.39;95.53;99483.16;107764;1297;22251;-43
2023/04/17 03:45:22;;;;;;;23.80;15.30;;;;;;;7.38;96.28;99487.56;107440;1309;22459;-42
2023/04/17 03:47:48;;;;;;;22.60;15.90;;;;;;;7.44;96.04;99491.17;107728;1309;22240;-42
2023/04/17 03:50:13;;;;;;;20.20;14.20;;;;;;;7.45;96.54;99490.95;107676;1309;22257;-43
2023/04/17 03:52:38;;;;;;;21.00;14.60;;;;;;;7.46;95.88;99490.39;107706;1308;22894;-42
2023/04/17 03:55:04;;;;;;;21.90;14.90;;;;;;;7.41;96.33;99491.80;107710;1308;23134;-43
2023/04/17 03:57:30;;;;;;;24.60;16.10;;;;;;;7.39;96.41;99497.30;107750;1308;22230;-43
2023/04/17 03:59:55;;;;;;;23.40;16.10;;;;;;;7.36;96.33;99496.53;107734;1308;22227;-42
2023/04/17 04:02:21;;;;;;;22.50;15.20;;;;;;;7.30;96.72;99499.21;107711;1308;22247;-43
2023/04/17 04:04:49;;;;;;;25.70;15.80;;;;;;;7.28;97.41;99501.55;107723;1308;22220;-44
2023/04/17 04:07:14;;;;;;;23.10;15.70;;;;;;;7.32;96.82;99505.23;107710;1308;22427;-42
2023/04/17 04:09:39;;;;;;;23.70;14.90;;;;;;;7.31;97.10;99504.02;107727;1308;22937;-42
2023/04/17 04:12:05;;;;;;;26.10;15.60;;;;;;;7.32;97.16;99506.46;107703;1308;22239;-43
2023/04/17 04:14:30;;;;;;;21.00;15.40;;;;;;;7.33;96.74;99504.14;107709;1308;22291;-42
2023/04/17 04:16:55;;;;;;;21.40;15.90;;;;;;;7.35;96.77;99502.36;107758;1308;22235;-43
2023/04/17 04:19:20;;;;;;;24.20;15.60;;;;;;;7.34;97.29;99503.23;107711;1308;22234;-44
2023/04/17 04:21:46;;;;;;;24.50;15.70;;;;;;;7.33;97.19;99503.44;107715;1308;22238;-43
2023/04/17 04:24:12;;;;;;;22.70;15.60;;;;;;;7.28;98.01;99505.20;107710;1308;23004;-44
2023/04/17 04:26:39;;;;;;;26.20;16.30;;;;;;;7.26;98.22;99501.60;107714;1308;22343;-43
2023/04/17 04:29:05;;;;;;;23.90;16.30;;;;;;;7.27;98.11;99500.38;107709;1309;22633;-43
2023/04/17 04:31:30;;;;;;;28.50;17.40;;;;;;;7.32;97.72;99502.44;107738;1308;23015;-42
2023/04/17 04:34:00;;;;;;;28.70;17.70;;;;;;;7.31;97.47;99505.61;107726;1308;22202;-42
2023/04/17 04:36:28;;;;;;;25.10;16.80;;;;;;;7.30;97.44;99504.25;107738;1308;22211;-42
2023/04/17 04:38:58;;;;;;;23.10;16.20;;;;;;;7.31;97.68;99503.52;107754;1293;22354;-43
2023/04/17 04:41:25;;;;;;;29.00;16.50;;;;;;;7.34;97.59;99507.08;107829;1308;22303;-44
2023/04/17 04:43:52;;;;;;;26.70;17.90;;;;;;;7.34;97.93;99509.35;107799;1308;22222;-42
2023/04/17 04:46:17;;;;;;;24.50;15.90;;;;;;;7.38;97.84;99511.63;107824;1308;22241;-41
2023/04/17 04:48:43;;;;;;;22.30;15.60;;;;;;;7.38;98.28;99514.94;107812;1308;22171;-41
2023/04/17 04:51:08;;;;;;;27.50;16.30;;;;;;;7.39;97.58;99519.96;107807;1308;23012;-43
2023/04/17 04:53:34;;;;;;;22.50;15.20;;;;;;;7.35;98.41;99522.92;107832;1308;22420;-41
2023/04/17 04:56:00;;;;;;;20.90;14.70;;;;;;;7.39;97.96;99519.09;107822;1308;22134;-42
2023/04/17 04:58:28;;;;;;;25.50;16.00;;;;;;;7.41;98.00;99518.65;107484;1308;22251;-43
2023/04/17 05:00:54;;;;;;;22.70;16.00;;;;;;;7.42;98.12;99516.52;107808;1308;22501;-41
2023/04/17 05:03:21;;;;;;;23.90;15.50;;;;;;;7.42;98.38;99520.70;107843;1308;22675;-42
2023/04/17 05:05:46;;;;;;;25.10;15.20;;;;;;;7.42;98.00;99527.19;107595;1308;22257;-41
2023/04/17 05:08:11;;;;;;;24.70;15.40;;;;;;;7.41;97.81;99526.52;107798;1308;22471;-43
2023/04/17 05:10:37;;;;;;;25.90;16.80;;;;;;;7.42;98.23;99530.31;107821;1308;22237;-42
2023/04/17 05:13:02;;;;;;;28.90;16.80;;;;;;;7.47;98.52;99530.11;107805;1308;22245;-43
2023/04/17 05:15:27;;;;;;;26.80;15.60;;;;;;;7.55;98.42;99527.17;107809;1308;22242;-43
2023/04/17 05:17:53;;;;;;;21.10;15.30;;;;;;;7.60;98.51;99528.92;107827;1308;22453;-42
2023/04/17 05:20:18;;;;;;;24.70;16.50;;;;;;;7.62;98.72;99522.90;107791;1308;22231;-42
2023/04/17 05:22:44;;;;;;;25.70;16.50;;;;;;;7.63;99.20;99522.51;107784;1308;22463;-43
2023/04/17 05:25:09;;;;;;;25.20;17.50;;;;;;;7.69;98.59;99519.84;107835;1308;22407;-43
2023/04/17 05:27:34;;;;;;;30.90;18.10;;;;;;;7.74;98.61;99521.40;107812;1308;23060;-43
2023/04/17 05:30:00;;;;;;;29.60;17.80;;;;;;;7.79;99.03;99523.10;107828;1308;22297;-43
2023/04/17 05:32:25;;;;;;;26.30;16.50;;;;;;;7.89;98.90;99522.70;107814;1308;22232;-41
2023/04/17 05:34:51;;;;;;;24.90;17.20;;;;;;;7.99;98.14;99528.22;107798;1308;22993;-43
2023/04/17 05:37:16;;;;;;;27.60;17.70;;;;;;;8.03;97.87;99526.49;107797;1308;22390;-43
2023/04/17 05:39:41;;;;;;;33.40;18.50;;;;;;;8.03;97.81;99531.04;107804;1308;22258;-42
2023/04/17 05:42:07;;;;;;;30.00;18.20;;;;;;;8.02;98.51;99538.06;107792;1308;22925;-43
2023/04/17 05:44:32;;;;;;;26.90;18.00;;;;;;;8.09;97.94;99534.11;107771;1308;22212;-43
2023/04/17 05:46:59;;;;;;;28.80;18.30;;;;;;;8.12;97.95;99533.47;107826;1308;22934;-44
2023/04/17 05:49:27;;;;;;;32.60;18.80;;;;;;;8.10;98.04;99533.92;107783;1308;23035;-42
2023/04/17 05:51:52;;;;;;;23.40;17.10;;;;;;;8.11;98.60;99535.26;107811;1308;22453;-43
2023/04/17 05:54:17;;;;;;;26.30;18.00;;;;;;;8.15;99.02;99533.89;107810;1308;22233;-43
2023/04/17 05:56:43;;;;;;;27.40;18.00;;;;;;;8.23;98.39;99541.06;107786;1308;23077;-44
2023/04/17 05:59:08;;;;;;;27.70;18.20;;;;;;;8.26;98.38;99541.77;107777;1308;22405;-44
2023/04/17 06:01:34;;;;;;;27.70;18.90;;;;;;;8.32;98.29;99543.64;107793;1308;22409;-44
2023/04/17 06:04:00;;;;;;;24.90;16.90;;;;;;;8.39;98.08;99547.70;107807;1308;22238;-41
2023/04/17 06:06:26;;;;;;;25.10;17.30;;;;;;;8.41;97.91;99553.94;107789;1308;22436;-44
2023/04/17 06:08:53;;;;;;;27.90;18.10;;;;;;;8.41;97.69;99552.53;107802;1308;22239;-43
2023/04/17 06:11:18;;;;;;;27.10;17.40;;;;;;;8.42;97.77;99550.20;107792;1308;22373;-43
2023/04/17 06:13:43;;;;;;;29.20;17.80;;;;;;;8.47;97.69;99554.56;107785;1308;23079;-43
2023/04/17 06:16:09;;;;;;;25.40;17.20;;;;;;;8.52;97.71;99558.55;107799;1308;22236;-42
2023/04/17 06:18:34;;;;;;;27.00;17.70;;;;;;;8.55;97.52;99559.46;107793;1308;22269;-42
2023/04/17 06:21:00;;;;;;;25.80;19.00;;;;;;;8.58;96.94;99564.07;107793;1308;22349;-47
2023/04/17 06:23:25;;;;;;;26.20;17.40;;;;;;;8.59;97.38;99566.63;107791;1308;23702;-43
2023/04/17 06:25:51;;;;;;;23.80;17.50;;;;;;;8.60;97.16;99566.77;107793;1308;22220;-43
2023/04/17 06:28:16;;;;;;;27.80;17.70;;;;;;;8.67;97.28;99569.60;107816;1308;22256;-43
2023/04/17 06:30:41;;;;;;;32.00;18.40;;;;;;;8.75;97.31;99569.99;107787;1308;23148;-41
2023/04/17 06:33:07;;;;;;;25.40;18.00;;;;;;;8.77;97.22;99569.20;107771;1308;22396;-41
2023/04/17 06:35:32;;;;;;;31.00;18.20;;;;;;;8.76;97.19;99570.47;107775;1308;22323;-40
2023/04/17 06:37:58;;;;;;;28.30;17.80;;;;;;;8.84;96.33;99572.20;107767;1308;22415;-41
2023/04/17 06:40:23;;;;;;;30.60;18.70;;;;;;;8.89;95.99;99565.54;107795;1308;22381;-42
2023/04/17 06:42:48;;;;;;;27.50;17.40;;;;;;;8.90;96.15;99570.02;107800;1308;22445;-41
2023/04/17 06:45:14;;;;;;;26.00;16.50;;;;;;;8.89;96.61;99571.14;107810;1308;22983;-41
2023/04/17 06:47:41;;;;;;;28.40;18.50;;;;;;;8.87;96.72;99576.29;107801;1308;22312;-42
2023/04/17 06:50:07;;;;;;;29.10;17.90;;;;;;;8.82;97.03;99569.15;107806;1308;23036;-42
